Weather at Zürich Airport

Public forecast

Using degrees Celsius for public forecast. Weather courtesy of forecast.io.

Current aviation weather report (METAR) for Zürich Airport

Retrieved 2021/01/23 22:20 UTC (4 minutes ago):

LSZH 232220Z 23007KT 9000 FEW006 BKN012 BKN016 02/01 Q0995 RESN TEMPO 2500 SN BKN011

Aviation forecast (TAF) for Zürich Airport

Retrieved 2021/01/23 21:33 UTC (51 minutes ago):

TAF LSZH 232025Z 2321/2503 15003KT 9999 SCT040 BKN060 TX04/2414Z TN01/2405Z TEMPO 2321/2405 25012KT 2000 SHSNRA BKN012 TEMPO 2410/2415 CAVOK TEMPO 2421/2424 2000 -SN BKN009